Time;durP1;ratioP1;P1;durP2;ratioP2;P2;SDS_P1;SDS_P2;PMS_P1;PMS_P2;Temp;Humidity;BMP_temperature;BMP_pressure;BME280_temperature;BME280_humidity;BME280_pressure;Samples;Min_cycle;Max_cycle;Signal;HPM_P1;HPM_P2
2024/04/05 00:01:48;;;;;;;29.55;4.30;;;;;;;15.95;55.29;100995.91;4927650;28;96787;-89
2024/04/05 00:04:14;;;;;;;26.30;4.88;;;;;;;15.93;55.26;100988.03;4934968;28;96932;-89
2024/04/05 00:06:39;;;;;;;22.63;4.50;;;;;;;15.93;55.26;100981.91;4947702;28;100483;-90
2024/04/05 00:09:06;;;;;;;27.33;4.07;;;;;;;15.94;55.43;100959.97;4948394;28;100634;-89
2024/04/05 00:11:32;;;;;;;24.90;4.63;;;;;;;15.92;55.26;100969.66;4946743;28;96740;-89
2024/04/05 00:13:57;;;;;;;27.20;4.45;;;;;;;15.91;55.37;100984.53;4946934;28;96971;-89
2024/04/05 00:16:23;;;;;;;29.30;4.32;;;;;;;15.90;55.39;100979.28;4960182;28;101032;-90
2024/04/05 00:18:50;;;;;;;21.23;3.92;;;;;;;15.88;55.55;100981.94;4947249;28;100619;-89
2024/04/05 00:21:16;;;;;;;24.73;5.47;;;;;;;15.89;55.45;100982.81;4949879;28;96789;-89
2024/04/05 00:23:41;;;;;;;26.75;4.40;;;;;;;15.88;55.57;100975.78;4931124;28;96913;-89
2024/04/05 00:26:09;;;;;;;28.35;3.25;;;;;;;15.87;55.54;100990.72;4931054;28;100700;-89
2024/04/05 00:28:36;;;;;;;22.92;4.03;;;;;;;15.85;55.60;100989.84;4962300;28;100274;-89
2024/04/05 00:31:03;;;;;;;26.90;4.50;;;;;;;15.84;55.77;100997.75;4931333;28;96796;-88
2024/04/05 00:33:29;;;;;;;25.98;4.40;;;;;;;15.82;55.52;100994.25;4933798;28;96876;-89
2024/04/05 00:35:56;;;;;;;28.05;3.97;;;;;;;15.80;55.86;100997.75;4929990;28;100700;-89
2024/04/05 00:38:23;;;;;;;22.85;4.07;;;;;;;15.81;55.68;100990.78;4950439;28;97900;-89
2024/04/05 00:40:49;;;;;;;26.45;4.15;;;;;;;15.79;55.77;100988.16;4944905;28;96808;-88
2024/04/05 00:43:15;;;;;;;24.75;3.70;;;;;;;15.78;55.99;100994.28;4929592;28;97078;-88
2024/04/05 00:45:41;;;;;;;25.55;4.43;;;;;;;15.76;56.11;100990.78;4923730;28;99693;-89
2024/04/05 00:48:12;;;;;;;23.67;3.65;;;;;;;15.74;56.56;100994.25;4947452;28;99161;-89
2024/04/05 00:50:37;;;;;;;20.00;4.07;;;;;;;15.71;56.59;100984.66;4932804;28;96887;-88
2024/04/05 00:53:04;;;;;;;22.63;4.53;;;;;;;15.69;56.72;100990.81;4943371;28;96983;-89
2024/04/05 00:55:30;;;;;;;25.77;3.95;;;;;;;15.69;56.98;100977.66;4948261;28;98015;-89
2024/04/05 00:58:00;;;;;;;26.73;4.35;;;;;;;15.68;57.04;100983.78;4945119;28;100798;-89
2024/04/05 01:00:28;;;;;;;22.77;4.15;;;;;;;15.70;57.36;100987.28;4930724;28;96871;-90
2024/04/05 01:02:53;;;;;;;21.30;4.20;;;;;;;15.73;57.33;100989.91;4944741;28;98234;-90
2024/04/05 01:05:19;;;;;;;17.60;3.72;;;;;;;15.73;57.35;100992.53;4947410;28;98067;-89
2024/04/05 01:07:46;;;;;;;18.92;3.35;;;;;;;15.74;57.72;100994.25;4940893;28;100653;-89
2024/04/05 01:10:11;;;;;;;24.50;3.67;;;;;;;15.74;57.86;100989.00;4944219;28;96890;-89
2024/04/05 01:12:37;;;;;;;26.15;4.22;;;;;;;15.75;57.80;100983.75;4929524;28;96854;-90
2024/04/05 01:15:02;;;;;;;21.23;3.55;;;;;;;15.79;57.75;100987.25;4945649;28;100992;-89
2024/04/05 01:17:28;;;;;;;19.27;3.63;;;;;;;15.83;57.51;100980.22;4940771;28;99252;-89
2024/04/05 01:19:56;;;;;;;21.55;4.05;;;;;;;15.83;57.77;100983.72;4944684;28;96849;-88
2024/04/05 01:22:29;;;;;;;25.30;3.85;;;;;;;15.83;58.13;100985.47;4941891;28;96873;-89
2024/04/05 01:24:55;;;;;;;23.05;3.50;;;;;;;15.85;58.07;100978.47;4947814;28;98195;-89
2024/04/05 01:27:20;;;;;;;22.58;4.38;;;;;;;15.85;58.16;100991.63;4944027;28;96735;-89
2024/04/05 01:29:46;;;;;;;21.92;3.90;;;;;;;15.86;58.13;100993.34;4945959;28;101560;-89
2024/04/05 01:32:11;;;;;;;23.60;4.32;;;;;;;15.86;58.32;100990.72;4941602;28;97563;-89
2024/04/05 01:34:36;;;;;;;25.15;4.22;;;;;;;15.87;58.24;100989.84;4943784;28;98150;-89
2024/04/05 01:37:02;;;;;;;28.70;3.72;;;;;;;15.87;58.38;100974.06;4931709;28;100446;-88
2024/04/05 01:39:29;;;;;;;23.08;4.53;;;;;;;15.87;58.52;100960.91;4944665;28;96880;-88
2024/04/05 01:41:54;;;;;;;17.85;3.95;;;;;;;15.90;58.79;100958.22;4948909;28;96912;-89
2024/04/05 01:44:20;;;;;;;25.80;4.20;;;;;;;15.93;58.53;100969.59;4948545;28;98213;-89
2024/04/05 01:46:45;;;;;;;19.67;3.92;;;;;;;15.95;58.57;100974.88;4931753;28;100453;-89
2024/04/05 01:49:11;;;;;;;26.45;4.45;;;;;;;15.94;58.70;100979.25;4932423;28;96860;-89
2024/04/05 01:51:38;;;;;;;22.70;3.95;;;;;;;15.94;58.90;100979.25;4947541;28;96758;-90
2024/04/05 01:54:04;;;;;;;25.27;4.13;;;;;;;15.96;58.84;100976.63;4932665;28;100548;-89
2024/04/05 01:56:29;;;;;;;23.75;4.32;;;;;;;15.99;58.85;100981.88;4945629;28;100240;-89
2024/04/05 01:58:55;;;;;;;23.08;4.90;;;;;;;15.97;58.77;100979.25;4943289;28;96777;-89
2024/04/05 02:01:20;;;;;;;22.98;4.10;;;;;;;15.95;58.80;100975.75;4943346;28;96969;-89
2024/04/05 02:03:45;;;;;;;26.02;4.40;;;;;;;15.95;58.98;100954.72;4932227;28;100243;-89
2024/04/05 02:06:12;;;;;;;23.65;4.80;;;;;;;15.96;58.90;100952.94;4932794;28;99119;-89
2024/04/05 02:08:38;;;;;;;26.13;4.55;;;;;;;15.96;59.02;100960.84;4932208;28;96832;-89
2024/04/05 02:11:03;;;;;;;27.13;4.53;;;;;;;15.95;59.26;100959.97;4954399;28;96898;-88
2024/04/05 02:13:29;;;;;;;21.08;4.13;;;;;;;15.96;58.97;100961.69;4925165;28;102788;-89
2024/04/05 02:15:54;;;;;;;24.20;3.92;;;;;;;15.95;59.01;100959.06;4946872;28;102353;-89
2024/04/05 02:18:19;;;;;;;28.58;5.28;;;;;;;15.93;58.91;100968.75;4944065;28;96874;-89
2024/04/05 02:20:57;;;;;;;25.08;4.78;;;;;;;15.89;58.92;100967.03;4947131;28;97038;-88
2024/04/05 02:23:23;;;;;;;31.48;5.10;;;;;;;15.88;59.18;100968.78;4942623;28;100347;-89
2024/04/05 02:25:50;;;;;;;24.65;4.32;;;;;;;15.84;59.16;100969.69;4926885;28;100342;-88
2024/04/05 02:28:16;;;;;;;27.02;5.15;;;;;;;15.84;59.26;100966.19;4929365;28;97149;-89
2024/04/05 02:30:41;;;;;;;26.33;5.50;;;;;;;15.80;59.28;100955.69;4947576;28;96903;-89
2024/04/05 02:33:07;;;;;;;24.70;4.47;;;;;;;15.78;59.34;100960.09;4929217;28;101122;-90
2024/04/05 02:35:33;;;;;;;24.75;5.25;;;;;;;15.74;59.52;100953.13;4928717;28;100218;-90
2024/04/05 02:37:58;;;;;;;33.92;5.90;;;;;;;15.73;59.66;100964.47;4953161;28;96852;-89
2024/04/05 02:40:24;;;;;;;24.15;5.32;;;;;;;15.73;59.46;100961.84;4947063;28;96909;-89
2024/04/05 02:42:50;;;;;;;24.33;4.35;;;;;;;15.74;59.55;100954.81;4947273;28;97709;-89
2024/04/05 02:45:15;;;;;;;20.73;4.50;;;;;;;15.71;59.36;100953.09;4934107;28;100187;-89
2024/04/05 02:47:41;;;;;;;24.77;4.90;;;;;;;15.69;59.41;100961.88;4948986;28;96791;-89
2024/04/05 02:50:06;;;;;;;23.02;5.00;;;;;;;15.67;59.51;100959.25;4948574;28;97137;-89
2024/04/05 02:52:33;;;;;;;24.90;4.82;;;;;;;15.65;59.69;100970.66;4932864;28;100646;-89
2024/04/05 02:54:58;;;;;;;22.95;4.35;;;;;;;15.64;59.69;100969.78;4945775;28;96805;-89
2024/04/05 02:57:24;;;;;;;21.40;4.68;;;;;;;15.60;59.61;100962.81;4947209;28;103538;-89
2024/04/05 02:59:49;;;;;;;21.92;4.40;;;;;;;15.57;59.82;100965.47;4934189;28;96871;-89
2024/04/05 03:02:14;;;;;;;27.65;4.50;;;;;;;15.54;59.72;100962.84;4933426;28;111258;-89
2024/04/05 03:04:40;;;;;;;26.38;4.13;;;;;;;15.52;59.90;100948.84;4934448;28;99866;-88
2024/04/05 03:07:05;;;;;;;26.70;4.47;;;;;;;15.50;59.84;100947.97;4949821;28;96894;-88
2024/04/05 03:09:31;;;;;;;22.55;4.22;;;;;;;15.48;60.23;100950.59;4949642;28;96909;-88
2024/04/05 03:11:56;;;;;;;20.58;4.15;;;;;;;15.46;60.05;100939.22;4950227;28;97814;-88
2024/04/05 03:14:22;;;;;;;13.52;3.42;;;;;;;15.46;60.28;100943.63;4934131;28;100122;-88
2024/04/05 03:16:47;;;;;;;20.65;4.30;;;;;;;15.46;60.25;100933.97;4942879;28;97117;-87
2024/04/05 03:19:12;;;;;;;25.02;4.20;;;;;;;15.45;60.36;100933.97;4949442;28;96924;-88
2024/04/05 03:21:38;;;;;;;24.60;4.40;;;;;;;15.45;60.57;100932.22;4946328;28;97632;-88
2024/04/05 03:24:04;;;;;;;25.02;4.93;;;;;;;15.48;60.60;100932.22;4948497;28;100357;-89
2024/04/05 03:26:31;;;;;;;25.67;4.30;;;;;;;15.49;60.34;100931.34;4942278;28;97043;-90
2024/04/05 03:28:57;;;;;;;19.25;4.13;;;;;;;15.48;60.37;100924.31;4947618;28;96970;-88
2024/04/05 03:31:22;;;;;;;26.20;4.57;;;;;;;15.49;60.51;100922.56;4944414;28;100901;-90
2024/04/05 03:33:48;;;;;;;22.80;4.72;;;;;;;15.50;60.62;100919.06;4948307;28;99597;-87
2024/04/05 03:36:13;;;;;;;22.20;4.43;;;;;;;15.50;60.43;100926.94;4933503;28;96834;-88
2024/04/05 03:38:38;;;;;;;13.90;3.88;;;;;;;15.49;60.42;100928.72;4940321;28;96864;-88
2024/04/05 03:41:04;;;;;;;26.00;4.35;;;;;;;15.49;60.55;100933.06;4946851;28;97754;-91
2024/04/05 03:43:30;;;;;;;23.85;4.30;;;;;;;15.48;60.71;100937.47;4947283;28;99805;-88
2024/04/05 03:45:56;;;;;;;24.85;4.32;;;;;;;15.47;60.58;100933.09;4933446;28;96822;-88
2024/04/05 03:48:21;;;;;;;27.63;4.10;;;;;;;15.46;60.72;100930.47;4949875;28;96880;-88
2024/04/05 03:50:47;;;;;;;21.80;4.85;;;;;;;15.46;60.89;100925.22;4953667;28;100250;-89
2024/04/05 03:53:12;;;;;;;19.58;4.15;;;;;;;15.46;60.95;100915.56;4949489;28;100720;-88
2024/04/05 03:55:38;;;;;;;22.95;4.32;;;;;;;15.45;60.74;100908.56;4950218;28;96890;-88
2024/04/05 03:58:04;;;;;;;27.65;4.65;;;;;;;15.46;61.10;100919.97;4933520;28;96928;-89
2024/04/05 04:00:30;;;;;;;26.02;4.38;;;;;;;15.46;60.82;100912.94;4929909;28;99503;-89
2024/04/05 04:02:55;;;;;;;21.52;3.97;;;;;;;15.47;60.98;100908.56;4932487;28;100636;-88
2024/04/05 04:05:21;;;;;;;16.63;3.72;;;;;;;15.49;61.04;100901.53;4943828;28;97192;-89
2024/04/05 04:07:46;;;;;;;21.48;4.45;;;;;;;15.50;61.17;100898.88;4945278;28;96860;-89
2024/04/05 04:10:12;;;;;;;23.17;4.32;;;;;;;15.50;61.00;100898.88;4927897;28;100871;-88
2024/04/05 04:12:38;;;;;;;21.98;3.92;;;;;;;15.49;61.33;100889.28;4930179;28;100800;-88
2024/04/05 04:15:05;;;;;;;18.02;3.70;;;;;;;15.50;61.28;100903.28;4932294;28;96765;-88
2024/04/05 04:17:31;;;;;;;20.73;4.05;;;;;;;15.50;61.08;100898.88;4940267;28;97484;-88
2024/04/05 04:19:59;;;;;;;20.17;4.35;;;;;;;15.50;61.28;100895.41;4942427;28;100405;-89
2024/04/05 04:22:24;;;;;;;20.52;3.88;;;;;;;15.52;61.30;100899.75;4926675;28;100504;-88
2024/04/05 04:24:50;;;;;;;19.95;4.30;;;;;;;15.54;61.34;100894.47;4932557;28;96960;-88
2024/04/05 04:27:16;;;;;;;20.95;4.82;;;;;;;15.55;61.20;100896.25;4950272;28;96793;-89
2024/04/05 04:29:42;;;;;;;29.90;4.18;;;;;;;15.54;61.34;100890.13;4923175;28;100681;-89
2024/04/05 04:32:07;;;;;;;23.55;4.20;;;;;;;15.56;61.31;100876.94;4947686;28;100572;-88
2024/04/05 04:34:32;;;;;;;19.73;3.90;;;;;;;15.59;61.61;100876.91;4927194;28;97135;-88
2024/04/05 04:36:58;;;;;;;20.30;3.95;;;;;;;15.61;61.27;100862.00;4929414;28;100683;-88
2024/04/05 04:39:23;;;;;;;19.52;4.53;;;;;;;15.61;61.25;100855.00;4960207;28;100186;-89
2024/04/05 04:41:49;;;;;;;22.40;4.63;;;;;;;15.62;61.35;100850.63;4948541;28;99745;-89
2024/04/05 04:44:14;;;;;;;16.05;3.40;;;;;;;15.62;61.48;100855.88;4947864;28;96784;-90
2024/04/05 04:46:39;;;;;;;30.05;4.47;;;;;;;15.63;61.52;100847.09;4931970;28;96941;-88
2024/04/05 04:49:05;;;;;;;18.55;4.05;;;;;;;15.62;61.28;100834.84;4926486;28;100847;-88
2024/04/05 04:51:30;;;;;;;17.27;3.92;;;;;;;15.63;61.42;100839.19;4945397;28;100393;-88
2024/04/05 04:53:56;;;;;;;20.55;4.00;;;;;;;15.63;61.43;100833.06;4945948;28;96860;-89
2024/04/05 04:56:22;;;;;;;22.42;4.20;;;;;;;15.62;61.57;100829.59;4945954;28;97041;-86
2024/04/05 04:58:49;;;;;;;20.45;3.60;;;;;;;15.60;61.49;100818.22;4947827;28;100616;-88
2024/04/05 05:01:15;;;;;;;20.80;3.85;;;;;;;15.59;61.43;100819.09;4945342;28;100719;-88
2024/04/05 05:03:40;;;;;;;16.17;3.70;;;;;;;15.58;61.61;100830.50;4942741;28;96831;-87
2024/04/05 05:06:06;;;;;;;17.42;3.63;;;;;;;15.56;61.50;100827.00;4957755;28;97263;-87
2024/04/05 05:08:31;;;;;;;26.20;4.05;;;;;;;15.54;61.72;100840.16;4946507;28;98000;-90
2024/04/05 05:10:56;;;;;;;24.70;4.50;;;;;;;15.53;61.64;100840.19;4945642;28;100489;-90
2024/04/05 05:13:22;;;;;;;20.17;4.40;;;;;;;15.51;61.65;100839.31;4940446;28;101136;-89
2024/04/05 05:15:47;;;;;;;28.17;3.72;;;;;;;15.52;61.60;100838.41;4927381;28;96851;-89
2024/04/05 05:18:14;;;;;;;18.85;3.97;;;;;;;15.50;61.92;100838.44;4928570;28;98631;-90
2024/04/05 05:20:47;;;;;;;14.68;4.07;;;;;;;15.50;62.09;100837.56;4920874;28;100463;-91
2024/04/05 05:23:13;;;;;;;19.27;4.13;;;;;;;15.51;61.94;100837.56;4942700;28;96977;-89
2024/04/05 05:25:40;;;;;;;17.00;4.20;;;;;;;15.51;61.80;100832.31;4944287;28;96924;-90
2024/04/05 05:28:06;;;;;;;21.17;3.92;;;;;;;15.52;61.87;100830.53;4942148;28;100957;-90
2024/04/05 05:30:31;;;;;;;17.05;3.78;;;;;;;15.52;62.31;100827.91;4945101;28;99967;-88
2024/04/05 05:32:56;;;;;;;19.75;4.13;;;;;;;15.51;61.94;100823.56;4930742;28;97333;-90
2024/04/05 05:35:23;;;;;;;16.25;3.83;;;;;;;15.52;61.98;100827.91;4926248;28;97030;-90
2024/04/05 05:37:48;;;;;;;17.88;3.25;;;;;;;15.52;62.10;100820.03;4943786;28;100632;-91
2024/04/05 05:40:14;;;;;;;19.65;3.95;;;;;;;15.52;62.17;100814.75;4962374;28;99943;-90
2024/04/05 05:42:40;;;;;;;19.25;4.15;;;;;;;15.55;62.14;100812.97;4947318;28;97063;-89
2024/04/05 05:45:05;;;;;;;18.13;4.10;;;;;;;15.59;62.20;100809.44;4938626;28;97594;-89
2024/04/05 05:47:31;;;;;;;20.10;4.25;;;;;;;15.61;62.08;100807.69;4935580;28;97613;-89
2024/04/05 05:49:56;;;;;;;14.30;3.97;;;;;;;15.65;62.14;100805.00;4942036;28;97439;-90
2024/04/05 05:52:21;;;;;;;18.70;3.85;;;;;;;15.66;61.97;100793.63;4924512;28;96950;-89
2024/04/05 05:54:47;;;;;;;13.00;3.53;;;;;;;15.70;62.17;100783.03;4942423;28;96969;-88
2024/04/05 05:57:12;;;;;;;14.00;3.47;;;;;;;15.73;62.15;100775.13;4946205;28;97890;-87
2024/04/05 05:59:38;;;;;;;18.10;4.03;;;;;;;15.75;62.17;100778.66;4943611;28;100249;-89
2024/04/05 06:02:04;;;;;;;20.05;4.10;;;;;;;15.80;62.24;100778.59;4941334;28;96772;-89
2024/04/05 06:04:30;;;;;;;17.70;3.40;;;;;;;15.86;62.50;100786.41;4927133;28;97028;-89
2024/04/05 06:06:55;;;;;;;17.83;4.43;;;;;;;15.92;62.65;100783.75;4942902;28;97600;-89
2024/04/05 06:09:24;;;;;;;19.80;4.22;;;;;;;15.97;62.43;100776.69;4939712;28;97584;-89
2024/04/05 06:11:54;;;;;;;19.55;4.10;;;;;;;16.03;62.41;100766.97;4943546;28;97078;-88
2024/04/05 06:14:19;;;;;;;16.65;3.40;;;;;;;16.06;62.11;100759.94;4921165;28;96951;-89
2024/04/05 06:16:45;;;;;;;18.17;3.75;;;;;;;16.09;62.46;100767.75;4945133;28;100619;-88
2024/04/05 06:19:11;;;;;;;13.30;3.58;;;;;;;16.13;62.06;100772.13;4935557;28;100368;-88
2024/04/05 06:21:37;;;;;;;14.95;4.13;;;;;;;16.16;62.12;100772.06;4945321;28;96895;-88
2024/04/05 06:24:03;;;;;;;20.08;4.03;;;;;;;16.18;62.13;100774.69;4945683;28;96865;-89
2024/04/05 06:26:29;;;;;;;16.83;3.33;;;;;;;16.21;62.16;100761.50;4944923;28;97810;-88
2024/04/05 06:28:55;;;;;;;14.88;3.92;;;;;;;16.24;62.13;100764.09;4922073;28;100344;-88
2024/04/05 06:31:20;;;;;;;16.45;3.70;;;;;;;16.27;62.18;100755.28;4937409;28;96854;-89
2024/04/05 06:33:46;;;;;;;14.45;3.50;;;;;;;16.31;62.38;100759.59;4944815;28;96899;-89
2024/04/05 06:36:11;;;;;;;16.42;3.90;;;;;;;16.35;62.13;100756.06;4925967;28;101685;-88
2024/04/05 06:38:37;;;;;;;16.30;4.20;;;;;;;16.38;62.27;100756.00;4942427;28;97787;-89
2024/04/05 06:41:03;;;;;;;15.30;4.25;;;;;;;16.44;62.28;100753.31;4932207;28;96963;-88
2024/04/05 06:43:29;;;;;;;16.13;3.92;;;;;;;16.48;62.36;100752.38;4939494;28;98189;-88
2024/04/05 06:45:59;;;;;;;17.45;3.95;;;;;;;16.53;62.32;100742.66;4938172;28;98147;-89
2024/04/05 06:48:25;;;;;;;14.95;3.47;;;;;;;16.60;62.43;100740.81;4945056;28;98894;-88
2024/04/05 06:50:51;;;;;;;16.67;3.80;;;;;;;16.66;62.27;100734.59;4923922;28;96910;-89
2024/04/05 06:53:27;;;;;;;15.85;3.88;;;;;;;16.72;62.44;100732.75;4937642;28;97049;-89
2024/04/05 06:55:53;;;;;;;14.18;3.42;;;;;;;16.79;62.30;100722.09;4943223;28;100698;-88
2024/04/05 06:58:19;;;;;;;17.40;3.83;;;;;;;16.86;62.15;100713.25;4926691;28;100702;-88
2024/04/05 07:00:45;;;;;;;12.50;3.83;;;;;;;16.92;62.04;100714.03;4943582;28;97127;-89
2024/04/05 07:03:12;;;;;;;14.23;3.35;;;;;;;16.98;61.89;100707.78;4927907;28;96997;-88
2024/04/05 07:05:38;;;;;;;15.43;3.25;;;;;;;17.04;61.86;100705.06;4921307;28;100299;-88
2024/04/05 07:08:04;;;;;;;10.38;3.58;;;;;;;17.09;62.09;100712.88;4938644;28;100300;-90
2024/04/05 07:10:31;;;;;;;18.98;3.70;;;;;;;17.12;62.17;100694.38;4935566;28;97037;-89
2024/04/05 07:12:57;;;;;;;16.13;3.50;;;;;;;17.19;61.91;100698.66;4942985;28;96946;-89
2024/04/05 07:15:23;;;;;;;12.18;3.35;;;;;;;17.23;61.78;100687.16;4918771;28;100704;-90
2024/04/05 07:17:52;;;;;;;17.00;3.67;;;;;;;17.28;61.50;100679.19;4920776;28;100773;-88
2024/04/05 07:20:27;;;;;;;;;;;;;;;17.30;61.91;100665.06;4944225;28;96928;-89
2024/04/05 07:22:53;;;;;;;11.75;3.28;;;;;;;17.40;61.31;100663.13;4939323;28;97042;-88
2024/04/05 07:25:23;;;;;;;9.35;3.03;;;;;;;17.41;61.27;100653.44;4947391;28;100120;-89
2024/04/05 07:27:54;;;;;;;11.73;3.70;;;;;;;17.39;61.19;100653.47;4945445;28;100326;-89
2024/04/05 07:30:20;;;;;;;10.45;3.13;;;;;;;17.39;61.12;100644.72;4925023;28;96984;-89
2024/04/05 07:32:45;;;;;;;13.50;3.15;;;;;;;17.37;61.03;100655.28;4940953;28;96918;-88
2024/04/05 07:35:10;;;;;;;9.75;2.70;;;;;;;17.35;61.00;100651.81;4947065;28;97562;-89
2024/04/05 07:37:36;;;;;;;13.82;3.72;;;;;;;17.34;61.26;100651.81;4950162;28;97542;-89
2024/04/05 07:40:01;;;;;;;10.48;3.63;;;;;;;17.30;61.24;100659.78;4947120;28;96937;-89
2024/04/05 07:42:29;;;;;;;13.65;3.25;;;;;;;17.28;61.34;100674.75;4947184;28;97004;-89
2024/04/05 07:44:54;;;;;;;11.70;3.60;;;;;;;17.25;61.29;100690.63;4946771;28;97410;-89
2024/04/05 07:47:20;;;;;;;13.85;3.30;;;;;;;17.22;61.71;100684.53;4927941;28;100256;-89
2024/04/05 07:49:45;;;;;;;12.88;3.22;;;;;;;17.18;61.28;100664.41;4931173;28;97479;-89
2024/04/05 07:52:11;;;;;;;13.50;3.28;;;;;;;17.12;61.50;100652.22;4919649;28;97006;-89
2024/04/05 07:54:36;;;;;;;16.85;3.63;;;;;;;17.07;61.44;100620.66;4947479;28;97755;-89
2024/04/05 07:57:03;;;;;;;14.00;3.30;;;;;;;17.03;61.71;100586.50;4947097;28;100144;-89
2024/04/05 07:59:29;;;;;;;13.63;3.17;;;;;;;16.99;61.82;100598.88;4947916;28;96874;-89
2024/04/05 08:01:54;;;;;;;13.20;3.60;;;;;;;16.95;62.02;100589.25;4929788;28;96852;-89
2024/04/05 08:04:20;;;;;;;14.23;3.05;;;;;;;16.94;62.03;100583.13;4948408;28;100105;-88
2024/04/05 08:06:46;;;;;;;16.30;3.13;;;;;;;16.94;62.00;100572.59;4948589;28;97749;-89
2024/04/05 08:09:11;;;;;;;12.85;3.53;;;;;;;16.97;62.50;100570.78;4947465;28;96855;-90
2024/04/05 08:11:37;;;;;;;17.42;3.78;;;;;;;16.96;62.26;100567.31;4924665;28;96820;-90
2024/04/05 08:14:02;;;;;;;13.18;3.78;;;;;;;16.98;62.40;100565.50;4946918;28;100740;-90
2024/04/05 08:16:27;;;;;;;13.00;4.13;;;;;;;16.98;62.56;100560.22;4942995;28;100525;-89
2024/04/05 08:18:54;;;;;;;15.48;3.35;;;;;;;17.00;62.38;100562.84;4946787;28;96906;-90
2024/04/05 08:21:21;;;;;;;19.58;3.63;;;;;;;17.01;62.54;100567.22;4930230;28;97025;-90
2024/04/05 08:23:48;;;;;;;10.93;3.50;;;;;;;17.02;62.39;100572.47;4945770;28;101706;-89
2024/04/05 08:26:14;;;;;;;17.40;3.80;;;;;;;17.04;62.72;100567.16;4940249;28;96943;-89
2024/04/05 08:28:39;;;;;;;13.05;3.25;;;;;;;17.06;62.41;100568.03;4941441;28;96893;-89
2024/04/05 08:31:05;;;;;;;12.80;3.17;;;;;;;17.08;62.47;100551.25;4939894;28;96996;-90
2024/04/05 08:33:31;;;;;;;9.18;3.03;;;;;;;17.09;62.48;100563.56;4927547;28;99031;-89
2024/04/05 08:35:57;;;;;;;11.10;3.35;;;;;;;17.09;62.38;100571.47;4944643;28;100627;-90
2024/04/05 08:38:22;;;;;;;9.75;3.05;;;;;;;17.12;62.58;100591.59;4946806;28;96956;-90
2024/04/05 08:40:48;;;;;;;9.68;3.28;;;;;;;17.12;62.21;100581.94;4928468;28;97095;-90
2024/04/05 08:43:16;;;;;;;9.70;3.38;;;;;;;17.13;62.24;100612.66;4942692;28;97801;-90
2024/04/05 08:45:42;;;;;;;15.27;3.38;;;;;;;17.13;62.18;100638.16;4920912;28;100572;-90
2024/04/05 08:48:08;;;;;;;10.93;3.22;;;;;;;17.12;62.36;100642.53;4945648;28;97129;-90
2024/04/05 08:50:34;;;;;;;11.15;3.42;;;;;;;17.12;62.25;100652.22;4929695;28;97073;-89
2024/04/05 08:53:00;;;;;;;8.40;3.03;;;;;;;17.11;62.36;100654.00;4927010;28;99657;-89
2024/04/05 08:55:26;;;;;;;9.13;2.53;;;;;;;17.10;62.59;100661.91;4940968;28;97440;-89
2024/04/05 08:57:53;;;;;;;9.23;2.83;;;;;;;17.09;62.63;100655.78;4927575;28;97126;-90
2024/04/05 09:00:23;;;;;;;10.50;2.97;;;;;;;17.09;62.51;100655.78;4922143;28;96925;-89
2024/04/05 09:02:53;;;;;;;8.65;3.40;;;;;;;17.11;62.76;100653.09;4945622;28;101424;-89
2024/04/05 09:05:19;;;;;;;13.27;2.92;;;;;;;17.12;62.61;100662.75;4945024;28;97640;-90
2024/04/05 09:07:49;;;;;;;11.40;2.63;;;;;;;17.11;62.68;100658.38;4945682;28;96829;-90
2024/04/05 09:10:16;;;;;;;9.02;2.97;;;;;;;17.11;62.66;100655.72;4929803;28;97111;-90
2024/04/05 09:13:01;;;;;;;10.63;2.55;;;;;;;17.10;62.75;100657.50;4946367;28;97660;-91
2024/04/05 09:15:26;;;;;;;6.57;2.40;;;;;;;17.14;62.61;100658.31;4946912;28;99065;-90
2024/04/05 09:17:53;;;;;;;8.43;2.20;;;;;;;17.18;62.87;100656.50;4941114;28;96983;-91
2024/04/05 09:20:24;;;;;;;8.27;2.53;;;;;;;17.19;62.83;100651.22;4936117;28;96999;-90
2024/04/05 09:22:58;;;;;;;9.95;2.53;;;;;;;17.21;62.57;100656.47;4946304;28;100912;-90
2024/04/05 09:25:23;;;;;;;9.05;1.95;;;;;;;17.24;62.68;100656.41;4923104;28;100416;-90
2024/04/05 09:27:50;;;;;;;8.18;2.60;;;;;;;17.24;62.98;100661.69;4930078;28;96794;-90
2024/04/05 09:30:15;;;;;;;9.88;2.38;;;;;;;17.24;62.58;100665.19;4925461;28;96871;-91
2024/04/05 09:32:41;;;;;;;7.30;2.70;;;;;;;17.25;62.73;100652.88;4961473;28;97510;-90
2024/04/05 09:35:08;;;;;;;8.55;2.13;;;;;;;17.27;62.86;100649.31;4940780;28;100729;-91
2024/04/05 09:37:35;;;;;;;11.07;2.35;;;;;;;17.30;62.62;100656.28;4929976;28;96870;-90
2024/04/05 09:40:01;;;;;;;11.18;2.45;;;;;;;17.27;62.76;100651.06;4946196;28;96908;-90
2024/04/05 09:42:27;;;;;;;8.40;2.10;;;;;;;17.28;62.79;100632.59;4937185;28;99380;-90
2024/04/05 09:44:55;;;;;;;10.75;1.95;;;;;;;17.28;63.09;100624.69;4927451;28;100054;-90
2024/04/05 09:47:22;;;;;;;6.82;2.10;;;;;;;17.26;63.03;100634.38;4918864;28;99489;-90
2024/04/05 09:49:49;;;;;;;8.68;2.50;;;;;;;17.28;63.09;100635.22;4926042;28;96942;-90
2024/04/05 09:52:20;;;;;;;8.38;2.50;;;;;;;17.30;63.30;100632.56;4944960;28;99285;-89
2024/04/05 09:54:52;;;;;;;8.95;2.53;;;;;;;17.35;63.24;100633.34;4947888;28;100662;-91
2024/04/05 09:57:18;;;;;;;9.13;2.45;;;;;;;17.40;63.29;100613.03;4949961;28;97251;-91
2024/04/05 09:59:48;;;;;;;6.65;2.10;;;;;;;17.46;63.51;100626.09;4933903;28;96905;-91
2024/04/05 10:02:17;;;;;;;10.27;2.05;;;;;;;17.53;63.24;100618.06;4939928;28;100808;-91
2024/04/05 10:04:46;;;;;;;8.07;2.28;;;;;;;17.60;63.68;100619.69;4949954;28;100704;-90
2024/04/05 10:07:12;;;;;;;8.85;2.28;;;;;;;17.66;63.21;100615.16;4949583;28;97143;-91
2024/04/05 10:09:38;;;;;;;5.40;1.85;;;;;;;17.72;63.40;100602.72;4948966;28;96756;-89
2024/04/05 10:12:17;;;;;;;7.03;2.05;;;;;;;17.78;63.48;100598.19;4951347;28;100586;-91
2024/04/05 10:14:52;;;;;;;5.05;2.00;;;;;;;17.85;63.15;100593.66;4950667;28;100244;-89
2024/04/05 10:17:18;;;;;;;;;;;;;;;17.91;63.24;100576.88;4947972;28;96837;-91
2024/04/05 10:19:43;;;;;;;7.60;2.33;;;;;;;18.00;63.04;100584.56;4948160;28;96974;-88
2024/04/05 10:22:11;;;;;;;8.23;2.22;;;;;;;18.04;62.99;100578.34;4953506;28;100807;-88
2024/04/05 10:24:37;;;;;;;8.50;2.00;;;;;;;18.06;62.83;100558.06;4948858;28;100490;-88
2024/04/05 10:27:11;;;;;;;6.75;1.83;;;;;;;18.10;62.79;100558.84;4944893;28;96760;-89
2024/04/05 10:29:36;;;;;;;6.85;2.03;;;;;;;18.15;62.63;100543.78;4947871;28;96840;-89
2024/04/05 10:32:06;;;;;;;8.00;2.50;;;;;;;18.17;62.61;100544.63;4942067;28;100574;-89
2024/04/05 10:34:32;;;;;;;7.53;2.05;;;;;;;18.19;62.48;100530.47;4940810;28;100447;-88
2024/04/05 10:36:58;;;;;;;10.68;2.20;;;;;;;18.23;62.66;100529.47;4946774;28;96825;-87
2024/04/05 10:39:23;;;;;;;7.47;1.98;;;;;;;18.29;62.09;100532.88;4925983;28;96997;-87
2024/04/05 10:41:49;;;;;;;6.40;2.03;;;;;;;18.35;62.35;100538.88;4929508;28;100414;-88
2024/04/05 10:44:18;;;;;;;6.03;1.95;;;;;;;18.42;62.44;100537.81;4929579;28;100378;-88
2024/04/05 10:46:48;;;;;;;8.00;2.08;;;;;;;18.51;62.21;100547.28;4947556;28;97075;-88
2024/04/05 10:49:19;;;;;;;6.30;1.58;;;;;;;18.58;62.21;100538.31;4947772;28;96984;-88
2024/04/05 10:51:46;;;;;;;6.32;2.40;;;;;;;18.65;61.76;100542.53;4946955;28;98064;-88
2024/04/05 10:54:14;;;;;;;7.03;2.30;;;;;;;18.72;62.07;100551.16;4948847;28;97629;-88
2024/04/05 10:56:42;;;;;;;8.73;2.20;;;;;;;18.81;61.58;100544.78;4932857;28;97017;-88
2024/04/05 10:59:09;;;;;;;5.78;2.03;;;;;;;18.87;61.56;100547.28;4949505;28;96810;-88
2024/04/05 11:01:37;;;;;;;7.85;1.92;;;;;;;18.90;61.40;100557.78;4951840;28;98015;-88
2024/04/05 11:04:04;;;;;;;5.97;2.60;;;;;;;18.92;60.97;100552.44;4947322;28;100322;-91
2024/04/05 11:06:30;;;;;;;5.25;1.98;;;;;;;18.92;60.90;100563.88;4936033;28;96846;-89
2024/04/05 11:08:56;;;;;;;5.22;1.67;;;;;;;18.91;60.66;100567.44;4950538;28;96807;-88
2024/04/05 11:11:21;;;;;;;5.90;1.65;;;;;;;18.92;60.92;100565.66;4943296;28;100643;-89
2024/04/05 11:13:47;;;;;;;5.70;1.75;;;;;;;18.92;60.63;100565.66;4950951;28;97461;-89